Aéroport int. de Victoria, Colombie-Britannique

Conditions des dernières 24 heures

Ce tableau est un sommaire des conditions météo couvrant les dernières 24 heures. Ce sommaire inclut les paramètres suivants: température, humidité, point de rosée, direction et vitesse du vent, pression barométrique, facteur de refroidissement éolien ou indice humidex.
Date / Heure
(HAP)
Conditions Temp (°F) Humidite (%) Point de rose (°F) Vent (mph) Pression (pouces) Visibilité (miles)
23 avril 2014
18:00 Nuageux 51 73 43 SE 11 rafale 18 29.8 30
17:00 Partiellement nuageux 51 75 43 SSE 15 29.8 30
16:00 Partiellement nuageux 52 73 44 SE 14 29.8 30
15:00 Partiellement nuageux 53   67 43 SE 12 rafale 18 29.9 30
14:00 Généralement nuageux 52 67 41 SE 12 29.9 30
13:00 Généralement ensoleillé 50 72 41 SE 14 29.9 30
12:00 Partiellement nuageux 51 74 44 SSE 14 rafale 22 29.9 30
11:00 Partiellement nuageux 49 82 44 SE 13 rafale 20 29.9 20
10:00 Partiellement nuageux 47 85 42 SE 15 29.9 20
9:00 Généralement nuageux 48 86 44 SE 11 29.9 20
8:00 Généralement nuageux 46 88 43 SE 9 29.9 20
7:00 Généralement nuageux 44 94 43 SSE 7 29.9 20
6:00 Généralement nuageux 44 96 43 SSE 6 29.9 15
5:00 Généralement dégagé 43 93 42 SSE 5 29.9 12
4:00 Partiellement nuageux 42 97 41 SE 3 29.9 15
3:00 Généralement dégagé 41 89 38 SSE 3 29.9 20
2:00 Généralement dégagé 41 99 40 calme 29.8 20
1:00 Généralement dégagé 40   97 40 SO 7 29.8 20
0:00 Généralement nuageux 44 97 44 SO 2 29.8 15
22 avril 2014
23:00 Pluie faible 45 93 43 N 2 29.8 12
22:00 Pluie faible 45 92 43 NO 3 29.8 12
21:00 Pluie faible 47 82 41 O 4 29.8 15
20:00 Pluie faible 49 69 39 SO 4 29.8 20
19:00 Nuageux 50 65 39 S 7 29.8 20
18:00 Généralement nuageux 51 64 39 S 13 rafale 22 29.8 20
N.D.
non disponible
 ↑ 
température la plus haute
 ↓ 
température la plus basse

Si vous désirez plus de données historiques sur les conditions météo, s.v.p. visitez Données climatologiques en ligne.